Zug um Zug London Zug um Zug London

Geschichte der Partien

Geschichte der Partien von smetzger
Spiel: 

Geschichte der Partien
[letzte 15 Tage] | [2015 (53)] | [2014 (83)] | [2013 (173)] | [2012 (212)] | [2011 (213)] | [2010 (302)] | [2009 (3)] | [2008 (291)] | [2007 (255)] 
Datum Punkte für smetzger Andere Spieler und Punkte Variante Partie wird gewertet
19.02.2015 107 Sille-DK(131) - DrewsEm(84) - Mamatog(109) us x
19.02.2015 129 Tom Thumb(106) - Roofvis(97) - ppppppphgghy(83) us
16.02.2015 133 mikey21r(136) - smiler113(149) - MR52(129) us x
10.02.2015 77 LOGJ4M(128) - lousyhero2(118) - Contempt2(48) us
05.02.2015 140 player1722586(127) - JimBonda(123) - zumazuma(112) us x
05.02.2015 69 jpp35(146) - player1735424(122) - harley1917(140) us
05.02.2015 95 andystal(142) - magivision(122) - harley1917(81) us x
03.02.2015 137 Rail_Blazer(161) - tomhauck(114) - ugmoe(95) us x
02.02.2015 129 wangensteen(120) - soubry(172) - okkie-plus(75) us
01.02.2015 142 mariawo(124) - sharondewitt415(98) - teddybaer1970(128) us x
30.01.2015 134 eleanord(152) - LuckyM1(132) - MeanJoaquin(144) us x
30.01.2015 43 majormadre(111) - allie1(100) - claytreefrog(114) us
30.01.2015 35 LOGJ4M(136) - cross7(19) - player1731185(45) us
30.01.2015 142 RugerShooter(117) - merriel(89) - dcockren(98) us x
29.01.2015 107 Abani(131) - Track Master(76) - trevco613(0) us
28.01.2015 104 Track Master(122) - maryjobrien92(99) - rishara(142) us x
27.01.2015 96 Train addict(91) - rappold(110) - jnuh(75) us x
27.01.2015 -10 minkovich(109) - {alinöé}(190) - pizdec_mona(158) us
27.01.2015 139 ETseng17(142) - NikVelit(117) - SiriMaster(106) us x
27.01.2015 165 Cosmyn24(156) - christinsdad(108) - elodia(91) us x
Seiten (3): [ «  <  1  2  3  >  » ]